Time;durP1;ratioP1;P1;durP2;ratioP2;P2;SDS_P1;SDS_P2;PMS_P1;PMS_P2;Temp;Humidity;BMP_temperature;BMP_pressure;BME280_temperature;BME280_humidity;BME280_pressure;Samples;Min_cycle;Max_cycle;Signal;HPM_P1;HPM_P2
2021/05/18 00:04:41;;;;;;;7.45;5.05;;;;;;;14.22;100.00;97850.02;4205460;84;28490;-80
2021/05/18 00:17:09;;;;;;;7.97;4.90;;;;;;;14.32;100.00;97855.08;4186257;84;28505;-80
2021/05/18 00:23:12;;;;;;;10.30;6.30;;;;;;;14.28;100.00;97857.53;4188237;84;28501;-80
2021/05/18 00:29:14;;;;;;;10.23;5.97;;;;;;;14.05;100.00;97866.63;4197814;84;28530;-83
2021/05/18 00:35:16;;;;;;;9.80;6.12;;;;;;;13.81;100.00;97862.52;4191617;84;28544;-82
2021/05/18 00:41:18;;;;;;;10.63;6.45;;;;;;;13.94;100.00;97874.55;4190349;84;28485;-82
2021/05/18 00:47:19;;;;;;;9.08;6.12;;;;;;;13.63;100.00;97874.77;4210159;82;28516;-82
2021/05/18 00:53:23;;;;;;;10.10;6.50;;;;;;;13.97;100.00;97871.84;4236378;82;28508;-82
2021/05/18 00:59:27;;;;;;;7.53;5.10;;;;;;;13.85;100.00;97881.64;4256217;81;28529;-80
2021/05/18 01:11:49;;;;;;;8.95;5.62;;;;;;;13.73;100.00;97876.61;4336811;81;28480;-79
2021/05/18 01:17:50;;;;;;;9.50;5.70;;;;;;;13.82;100.00;97884.91;4336989;80;28495;-79
2021/05/18 01:23:53;;;;;;;7.28;4.75;;;;;;;13.81;100.00;97889.53;4326457;80;28609;-79
2021/05/18 01:29:56;;;;;;;7.12;4.92;;;;;;;13.55;100.00;97885.62;4305601;81;28536;-81
2021/05/18 01:36:01;;;;;;;5.97;4.12;;;;;;;13.41;100.00;97893.49;4286424;81;28599;-80
2021/05/18 01:48:22;;;;;;;8.20;5.37;;;;;;;13.68;100.00;97888.25;4326856;81;28511;-80
2021/05/18 01:54:28;;;;;;;8.55;5.70;;;;;;;13.73;100.00;97892.81;4277710;82;28557;-81
2021/05/18 02:00:34;;;;;;;8.30;5.20;;;;;;;13.69;100.00;97899.84;4211623;82;28540;-80
2021/05/18 02:06:37;;;;;;;9.48;5.62;;;;;;;13.71;100.00;97901.19;4242844;83;28521;-80
2021/05/18 02:12:41;;;;;;;9.05;5.37;;;;;;;13.56;100.00;97912.88;4180237;85;28512;-80
2021/05/18 02:25:04;;;;;;;7.75;4.85;;;;;;;13.70;100.00;97909.03;4284597;82;28483;-80
2021/05/18 02:30:54;;;;;;;9.40;5.75;;;;;;;13.69;100.00;97916.88;4301410;82;28492;-80
2021/05/18 02:36:57;;;;;;;7.12;4.70;;;;;;;13.80;100.00;97933.28;4281960;82;28488;-80
2021/05/18 02:42:59;;;;;;;6.92;4.53;;;;;;;13.45;100.00;97929.70;4284240;82;28511;-81
2021/05/18 02:49:09;;;;;;;6.70;4.40;;;;;;;13.49;100.00;97939.41;4284372;82;28509;-78
2021/05/18 02:55:14;;;;;;;8.15;4.62;;;;;;;13.40;100.00;97937.77;4304343;81;28530;-78
2021/05/18 03:01:15;;;;;;;7.95;4.62;;;;;;;13.49;100.00;97941.55;4283082;82;28550;-81
2021/05/18 03:07:16;;;;;;;6.55;4.30;;;;;;;13.37;100.00;97946.44;4313521;81;28605;-81
2021/05/18 03:13:18;;;;;;;6.40;4.00;;;;;;;13.51;100.00;97962.32;4322344;81;28535;-82
2021/05/18 03:19:19;;;;;;;6.03;3.95;;;;;;;13.56;100.00;97966.89;4304942;81;28518;-81
2021/05/18 03:25:21;;;;;;;5.53;4.08;;;;;;;13.57;100.00;97972.55;4243264;83;28479;-80
2021/05/18 03:37:53;;;;;;;5.12;3.50;;;;;;;13.46;100.00;97990.71;4177823;84;28505;-82
2021/05/18 04:21:41;;;;;;;6.60;4.05;;;;;;;13.61;100.00;98035.75;4322324;80;28468;-80
2021/05/18 04:52:47;;;;;;;3.85;2.90;;;;;;;13.64;100.00;98046.00;4317655;81;28952;-81
2021/05/18 05:17:19;;;;;;;4.10;3.37;;;;;;;13.83;100.00;98058.89;4197589;84;28501;-76
2021/05/18 05:23:20;;;;;;;5.92;3.40;;;;;;;14.03;100.00;98055.84;4183109;84;28576;-77
2021/05/18 05:29:23;;;;;;;4.65;3.60;;;;;;;14.08;100.00;98057.15;4205488;85;28550;-76
2021/05/18 05:35:24;;;;;;;3.37;3.02;;;;;;;14.20;100.00;98063.58;4172717;84;28538;-76
2021/05/18 05:41:26;;;;;;;6.53;3.20;;;;;;;14.59;100.00;98081.73;4180111;84;28568;-77
2021/05/18 05:47:27;;;;;;;5.03;2.90;;;;;;;14.54;100.00;98080.41;4221422;83;28487;-78
2021/05/18 05:53:28;;;;;;;4.30;2.83;;;;;;;14.57;100.00;98074.42;4166923;84;28565;-78
2021/05/18 05:59:31;;;;;;;3.95;2.67;;;;;;;14.52;100.00;98080.41;4163075;85;28542;-77
2021/05/18 06:05:33;;;;;;;3.83;2.77;;;;;;;14.54;100.00;98083.67;4177507;84;28508;-78
2021/05/18 06:11:50;;;;;;;4.60;3.00;;;;;;;14.30;100.00;98088.39;4308225;81;28511;-78
2021/05/18 06:29:26;;;;;;;6.12;3.62;;;;;;;14.28;100.00;98087.86;4221621;82;28505;-79
2021/05/18 06:42:47;;;;;;;6.67;3.42;;;;;;;14.49;100.00;98118.31;4332146;81;28484;-77
2021/05/18 06:48:56;;;;;;;4.90;3.12;;;;;;;14.54;100.00;98126.94;4308584;81;28547;-77
2021/05/18 06:54:51;;;;;;;6.93;3.60;;;;;;;14.43;100.00;98132.94;4312212;81;28486;-78
2021/05/18 07:00:53;;;;;;;5.35;3.20;;;;;;;14.91;100.00;98133.75;4331575;81;28512;-78
2021/05/18 07:07:09;;;;;;;6.25;3.30;;;;;;;14.76;100.00;98146.83;4314257;81;28512;-78
2021/05/18 07:13:05;;;;;;;5.10;3.33;;;;;;;14.64;100.00;98148.52;4313125;81;28523;-78
2021/05/18 07:19:06;;;;;;;4.45;3.37;;;;;;;15.03;100.00;98136.11;4166987;84;28486;-78
2021/05/18 07:25:08;;;;;;;5.28;3.02;;;;;;;15.22;100.00;98134.86;4164799;84;28503;-77
2021/05/18 07:31:09;;;;;;;4.12;2.90;;;;;;;15.19;100.00;98133.52;4184833;83;28493;-77
2021/05/18 07:37:12;;;;;;;5.45;3.33;;;;;;;15.81;100.00;98140.26;4181055;84;28497;-77
2021/05/18 07:43:17;;;;;;;3.77;2.67;;;;;;;15.83;100.00;98145.41;4182305;84;28540;-78
2021/05/18 08:08:17;;;;;;;3.85;2.62;;;;;;;15.52;100.00;98173.59;4174131;84;28574;-79
2021/05/18 08:14:21;;;;;;;4.53;2.33;;;;;;;15.94;100.00;98174.04;4191614;83;28556;-80
2021/05/18 09:30:30;;;;;;;12.03;9.15;;;;;;;16.85;100.00;98208.19;4219204;82;28494;-81
2021/05/18 10:26:55;;;;;;;13.75;9.40;;;;;;;16.96;100.00;98247.66;4247349;83;28564;-91
2021/05/18 10:38:48;;;;;;;11.15;8.75;;;;;;;17.31;100.00;98248.01;4240239;83;28485;-90
2021/05/18 10:44:56;;;;;;;10.23;8.30;;;;;;;17.64;100.00;98244.77;4253244;83;28513;-92
2021/05/18 10:50:59;;;;;;;8.03;7.12;;;;;;;17.22;100.00;98256.03;4247173;83;28482;-91
2021/05/18 10:57:17;;;;;;;9.58;8.58;;;;;;;17.62;100.00;98259.75;4263647;83;28484;-91
2021/05/18 11:03:19;;;;;;;8.85;7.80;;;;;;;17.75;100.00;98264.98;4258993;83;28482;-91
2021/05/18 11:09:23;;;;;;;8.28;7.00;;;;;;;18.06;100.00;98266.63;4270101;82;28510;-90
2021/05/18 11:15:25;;;;;;;9.15;8.05;;;;;;;18.13;100.00;98275.78;4263871;82;28500;-88
2021/05/18 11:21:35;;;;;;;11.12;9.50;;;;;;;17.84;100.00;98280.88;4279144;82;28498;-89
2021/05/18 11:27:30;;;;;;;10.08;8.23;;;;;;;18.00;100.00;98280.05;4271484;82;28534;-83
2021/05/18 11:33:42;;;;;;;8.00;7.20;;;;;;;17.84;100.00;98280.30;4269176;82;28556;-85
2021/05/18 11:39:43;;;;;;;10.43;6.80;;;;;;;17.77;100.00;98288.59;4266085;82;28484;-84
2021/05/18 11:45:48;;;;;;;10.82;6.78;;;;;;;18.39;100.00;98281.55;4244828;82;28551;-90
2021/05/18 11:51:53;;;;;;;9.58;7.37;;;;;;;17.70;100.00;98286.27;4260341;82;28548;-90
2021/05/18 11:57:56;;;;;;;7.92;6.37;;;;;;;18.44;100.00;98276.57;4259961;82;28503;-89
2021/05/18 12:04:10;;;;;;;9.73;6.53;;;;;;;18.69;100.00;98281.23;4274609;82;28477;-87
2021/05/18 12:10:33;;;;;;;8.15;5.92;;;;;;;18.42;100.00;98291.01;4265786;82;28532;-84
2021/05/18 12:16:42;;;;;;;6.80;5.70;;;;;;;18.67;100.00;98288.91;4260095;82;28534;-85
2021/05/18 12:22:45;;;;;;;7.45;5.28;;;;;;;18.71;100.00;98292.63;4278477;82;28470;-84
2021/05/18 12:29:00;;;;;;;7.03;5.08;;;;;;;18.90;100.00;98295.80;4280089;82;28477;-84
2021/05/18 12:35:07;;;;;;;6.10;5.00;;;;;;;18.45;100.00;98292.33;4268027;82;28524;-86
2021/05/18 12:41:08;;;;;;;6.90;4.30;;;;;;;18.31;100.00;98293.67;4271765;82;28491;-81
2021/05/18 12:47:10;;;;;;;5.12;4.62;;;;;;;18.57;100.00;98294.56;4232635;82;28505;-81
2021/05/18 12:53:27;;;;;;;6.37;5.20;;;;;;;18.61;100.00;98291.47;4271323;82;28493;-81
2021/05/18 12:59:28;;;;;;;5.10;4.60;;;;;;;18.19;100.00;98297.69;4343290;80;28492;-80
2021/05/18 13:05:31;;;;;;;7.05;4.85;;;;;;;18.98;100.00;98294.27;4345101;80;28484;-80
2021/05/18 13:17:34;;;;;;;6.42;4.42;;;;;;;19.31;100.00;98300.38;4171118;85;28541;-80
2021/05/18 13:23:53;;;;;;;5.72;3.98;;;;;;;19.29;100.00;98310.79;4186070;83;28524;-81
2021/05/18 13:29:40;;;;;;;6.00;4.05;;;;;;;19.42;100.00;98302.88;4185475;84;28483;-79
2021/05/18 13:35:41;;;;;;;4.08;3.30;;;;;;;18.53;100.00;98291.09;4189977;83;28607;-78
2021/05/18 13:41:44;;;;;;;3.40;3.10;;;;;;;19.41;100.00;98293.09;4172059;83;28525;-79
2021/05/18 13:47:45;;;;;;;3.22;2.20;;;;;;;18.73;100.00;98308.67;4172604;84;28554;-80
2021/05/18 13:53:46;;;;;;;6.25;3.17;;;;;;;19.60;100.00;98294.27;4186112;84;28544;-81
2021/05/18 13:59:49;;;;;;;4.08;2.95;;;;;;;19.87;100.00;98289.23;4182309;83;28483;-79
2021/05/18 14:05:51;;;;;;;4.97;2.60;;;;;;;19.81;100.00;98298.68;4161888;84;28508;-81
2021/05/18 14:11:52;;;;;;;3.37;2.47;;;;;;;20.33;100.00;98285.11;4229174;83;28616;-81
2021/05/18 14:17:54;;;;;;;4.33;2.50;;;;;;;19.44;100.00;98289.73;4206944;84;28575;-78
2021/05/18 14:24:08;;;;;;;4.85;3.17;;;;;;;19.30;100.00;98283.78;4173112;84;28489;-78
2021/05/18 14:30:00;;;;;;;5.80;3.22;;;;;;;19.70;100.00;98288.57;4176311;84;28507;-79
2021/05/18 14:36:07;;;;;;;3.12;2.22;;;;;;;20.07;100.00;98291.23;4205304;84;28549;-79
2021/05/18 14:54:48;;;;;;;4.22;2.50;;;;;;;20.50;100.00;98285.73;4176124;84;28564;-79
2021/05/18 15:00:46;;;;;;;3.83;2.33;;;;;;;20.50;100.00;98285.73;4188942;84;28584;-78
2021/05/18 15:06:47;;;;;;;5.47;2.35;;;;;;;20.80;100.00;98284.63;4195077;84;28489;-78
2021/05/18 15:12:49;;;;;;;3.67;2.35;;;;;;;20.84;97.92;98281.52;4243859;82;28512;-79
2021/05/18 15:18:52;;;;;;;3.50;2.37;;;;;;;21.22;100.00;98291.05;4265068;82;28485;-78
2021/05/18 15:24:55;;;;;;;4.08;2.50;;;;;;;21.26;100.00;98289.85;4254031;82;28491;-79
2021/05/18 15:30:58;;;;;;;5.15;2.30;;;;;;;21.82;100.00;98287.28;4268692;82;28482;-78
2021/05/18 15:37:00;;;;;;;3.45;1.75;;;;;;;22.00;96.43;98290.78;4257387;82;28568;-78
2021/05/18 15:43:01;;;;;;;1.82;1.50;;;;;;;21.66;83.49;98282.03;4265920;82;28507;-79
2021/05/18 15:49:02;;;;;;;2.72;1.30;;;;;;;21.73;84.65;98288.67;4270769;82;28556;-76
2021/05/18 15:55:05;;;;;;;3.47;1.75;;;;;;;21.25;78.81;98297.81;4270260;82;28634;-79
2021/05/18 16:01:06;;;;;;;3.02;1.70;;;;;;;21.64;80.41;98285.66;4265307;82;28468;-80
2021/05/18 16:07:10;;;;;;;7.17;2.20;;;;;;;21.55;77.99;98291.15;4259802;82;28627;-79
2021/05/18 16:13:11;;;;;;;6.95;2.30;;;;;;;21.73;82.01;98299.62;4261440;82;28538;-80
2021/05/18 16:19:12;;;;;;;4.87;2.12;;;;;;;21.07;81.08;98301.09;4260649;82;28603;-80
2021/05/18 16:25:14;;;;;;;3.35;2.10;;;;;;;20.10;86.11;98319.27;4263939;82;28492;-78
2021/05/18 16:31:17;;;;;;;3.17;2.08;;;;;;;20.17;87.49;98313.37;4263747;82;28517;-78
2021/05/18 16:37:18;;;;;;;3.80;1.60;;;;;;;19.46;94.65;98325.66;4188692;83;28486;-75
2021/05/18 16:43:23;;;;;;;4.25;2.08;;;;;;;18.77;98.89;98347.78;4265768;81;28567;-79
2021/05/18 16:49:25;;;;;;;2.67;1.70;;;;;;;18.32;100.00;98350.52;4269083;81;28491;-78
2021/05/18 16:55:27;;;;;;;3.70;1.75;;;;;;;18.05;100.00;98359.42;4267084;81;28518;-79
2021/05/18 17:01:28;;;;;;;3.75;2.20;;;;;;;17.58;100.00;98376.40;4265499;81;28500;-77
2021/05/18 17:07:30;;;;;;;3.15;2.02;;;;;;;17.89;100.00;98379.23;4334271;80;28646;-79
2021/05/18 17:13:32;;;;;;;3.90;1.98;;;;;;;17.81;100.00;98375.28;4329109;81;28567;-85
2021/05/18 17:19:33;;;;;;;5.87;2.10;;;;;;;17.50;100.00;98387.95;4322188;81;28576;-75
2021/05/18 17:25:34;;;;;;;5.75;2.47;;;;;;;17.90;100.00;98386.28;4315036;81;28594;-78
2021/05/18 17:31:36;;;;;;;4.25;2.40;;;;;;;18.01;100.00;98384.19;4334809;81;28534;-79
2021/05/18 17:37:39;;;;;;;4.33;2.15;;;;;;;17.92;100.00;98392.23;4336835;81;28511;-82
2021/05/18 17:43:40;;;;;;;4.97;2.58;;;;;;;17.93;100.00;98406.08;4325151;81;28547;-83
2021/05/18 17:49:42;;;;;;;7.30;2.52;;;;;;;17.68;100.00;98399.36;4318945;81;28522;-86
2021/05/18 17:55:44;;;;;;;4.45;2.35;;;;;;;17.66;100.00;98410.29;4330620;81;28504;-83
2021/05/18 18:01:45;;;;;;;4.42;2.10;;;;;;;17.32;100.00;98416.70;4333298;81;28565;-78
2021/05/18 18:07:47;;;;;;;5.42;2.08;;;;;;;17.49;100.00;98415.66;4318321;81;28507;-81
2021/05/18 18:13:48;;;;;;;5.67;2.62;;;;;;;17.36;100.00;98421.83;4331967;80;28567;-80
2021/05/18 18:19:52;;;;;;;5.37;2.40;;;;;;;17.39;100.00;98428.03;4164987;84;28565;-84
2021/05/18 18:25:53;;;;;;;4.83;2.62;;;;;;;17.13;100.00;98426.42;4157846;85;28499;-80
2021/05/18 18:31:55;;;;;;;6.50;3.05;;;;;;;17.10;100.00;98422.94;4179520;83;28548;-80
2021/05/18 18:37:56;;;;;;;6.05;3.12;;;;;;;16.95;100.00;98434.75;4231078;83;28487;-91
2021/05/18 18:43:57;;;;;;;6.67;3.95;;;;;;;16.92;100.00;98447.55;4193710;83;28659;-81
2021/05/18 18:50:01;;;;;;;7.80;4.42;;;;;;;16.91;100.00;98457.34;4189800;83;28511;-83
2021/05/18 18:56:02;;;;;;;6.28;4.33;;;;;;;16.67;100.00;98466.26;4183393;83;28597;-79
2021/05/18 19:02:06;;;;;;;8.78;4.62;;;;;;;16.57;100.00;98471.21;4185615;83;28532;-83
2021/05/18 19:14:11;;;;;;;10.23;4.90;;;;;;;16.49;100.00;98488.92;4180779;84;28561;-82
2021/05/18 19:20:15;;;;;;;9.75;4.80;;;;;;;16.56;100.00;98480.45;4331496;81;28632;-82
2021/05/18 19:26:16;;;;;;;9.83;5.03;;;;;;;16.35;100.00;98486.58;4330018;81;28566;-82
2021/05/18 19:32:17;;;;;;;11.40;5.80;;;;;;;16.21;100.00;98479.65;4331269;81;28601;-87
2021/05/18 19:44:52;;;;;;;10.75;6.70;;;;;;;16.07;100.00;98485.69;4331671;81;28540;-82
2021/05/18 19:50:42;;;;;;;13.30;7.10;;;;;;;16.15;100.00;98487.01;4312126;81;28522;-80
2021/05/18 19:56:54;;;;;;;11.53;7.08;;;;;;;16.12;100.00;98486.20;4319383;81;28520;-81
2021/05/18 20:22:00;;;;;;;13.13;7.22;;;;;;;15.82;100.00;98500.16;4334241;81;28571;-80
2021/05/18 20:27:59;;;;;;;11.08;6.85;;;;;;;15.69;100.00;98495.62;4326899;81;28551;-83
2021/05/18 20:34:09;;;;;;;14.38;8.80;;;;;;;15.72;100.00;98492.37;4323356;81;28521;-86
2021/05/18 20:40:10;;;;;;;15.23;8.53;;;;;;;15.75;100.00;98489.10;4325553;81;28622;-84
2021/05/18 20:46:11;;;;;;;12.33;7.58;;;;;;;15.67;100.00;98500.52;4325305;81;28512;-84
2021/05/18 20:52:13;;;;;;;15.08;8.98;;;;;;;15.56;100.00;98503.80;4317296;81;28527;-80
2021/05/18 20:58:14;;;;;;;14.85;8.90;;;;;;;15.44;100.00;98507.37;4320466;81;28554;-77
2021/05/18 21:04:16;;;;;;;14.70;7.97;;;;;;;15.32;100.00;98518.53;4325809;81;28514;-77
2021/05/18 21:10:32;;;;;;;14.53;8.13;;;;;;;15.23;100.00;98515.55;4330558;81;28521;-79
2021/05/18 21:16:27;;;;;;;13.30;8.33;;;;;;;15.28;100.00;98522.33;4325728;80;28519;-77
2021/05/18 21:22:28;;;;;;;15.08;8.90;;;;;;;15.21;100.00;98527.21;4168749;83;28511;-77
2021/05/18 21:28:30;;;;;;;11.90;8.10;;;;;;;15.16;100.00;98528.59;4226005;82;28545;-81
2021/05/18 21:34:31;;;;;;;16.25;7.83;;;;;;;15.22;100.00;98523.97;4202856;84;28536;-80
2021/05/18 21:46:51;;;;;;;15.43;8.55;;;;;;;15.13;100.00;98529.12;4179130;84;28498;-80
2021/05/18 21:52:53;;;;;;;14.40;7.95;;;;;;;15.07;100.00;98527.52;4186770;84;28545;-80
2021/05/18 21:58:54;;;;;;;13.22;7.92;;;;;;;15.02;100.00;98527.78;4186405;84;28515;-79
2021/05/18 22:04:56;;;;;;;12.93;7.80;;;;;;;14.96;100.00;98527.54;4332853;80;28528;-82
2021/05/18 22:29:42;;;;;;;13.83;7.72;;;;;;;14.72;100.00;98525.90;4194647;84;28536;-82
2021/05/18 22:35:44;;;;;;;12.07;7.37;;;;;;;14.69;100.00;98523.74;4185408;84;28562;-80
2021/05/18 22:41:45;;;;;;;12.30;7.78;;;;;;;14.55;100.00;98525.61;4190379;84;28570;-81
2021/05/18 22:47:47;;;;;;;14.45;8.20;;;;;;;14.58;100.00;98527.80;4187499;84;28576;-81
2021/05/18 22:53:48;;;;;;;12.25;7.22;;;;;;;14.53;100.00;98523.72;4200199;83;28497;-81
2021/05/18 22:59:49;;;;;;;13.93;7.30;;;;;;;14.36;100.00;98510.47;4347335;80;28501;-81
2021/05/18 23:05:51;;;;;;;15.40;7.95;;;;;;;14.30;100.00;98512.88;4333817;80;28488;-80
2021/05/18 23:11:52;;;;;;;15.80;9.25;;;;;;;14.15;100.00;98506.38;4340419;80;28573;-81
2021/05/18 23:17:53;;;;;;;12.55;8.65;;;;;;;14.02;100.00;98517.16;4331268;81;28539;-82
2021/05/18 23:23:55;;;;;;;14.15;8.60;;;;;;;13.93;100.00;98522.80;4330488;81;28552;-82
2021/05/18 23:29:56;;;;;;;16.20;9.33;;;;;;;14.15;100.00;98514.49;4321850;81;28597;-82
2021/05/18 23:35:57;;;;;;;16.17;9.75;;;;;;;14.16;100.00;98521.52;4324559;81;28478;-80
2021/05/18 23:41:59;;;;;;;14.60;8.90;;;;;;;14.12;100.00;98515.03;4325168;81;28507;-81
2021/05/18 23:48:00;;;;;;;16.20;8.75;;;;;;;14.01;100.00;98522.85;4316128;81;28503;-81
2021/05/18 23:54:04;;;;;;;16.77;8.65;;;;;;;14.06;100.00;98524.20;4332041;81;28517;-82
